Time;durP1;ratioP1;P1;durP2;ratioP2;P2;SDS_P1;SDS_P2;PMS_P1;PMS_P2;Temp;Humidity;BMP_temperature;BMP_pressure;BME280_temperature;BME280_humidity;BME280_pressure;Samples;Min_cycle;Max_cycle;Signal;HPM_P1;HPM_P2
2021/06/04 00:00:00;;;;;;;4.93;4.43;;;;;;;21.52;38.56;101740.97;694804;28;1518;-63
2021/06/04 00:00:25;;;;;;;4.30;4.00;;;;;;;21.52;38.53;101740.13;694398;28;23391;-63
2021/06/04 00:00:47;;;;;;;4.70;4.30;;;;;;;21.52;38.01;101734.63;690092;28;115140;-63
2021/06/04 00:01:14;;;;;;;4.70;4.35;;;;;;;21.54;38.32;101732.50;694500;28;39225;-63
2021/06/04 00:01:37;;;;;;;4.30;4.00;;;;;;;21.50;38.54;101732.09;692865;28;136094;-63
2021/06/04 00:01:58;;;;;;;4.63;4.33;;;;;;;21.51;38.42;101732.94;694202;28;92009;-63
2021/06/04 00:02:20;;;;;;;5.03;4.43;;;;;;;21.51;38.62;101735.69;696033;28;46496;-63
2021/06/04 00:02:41;;;;;;;4.90;4.38;;;;;;;21.51;38.43;101736.53;696449;28;22188;-63
2021/06/04 00:03:05;;;;;;;4.53;4.22;;;;;;;21.53;38.21;101736.31;694513;28;46418;-63
2021/06/04 00:03:27;;;;;;;4.90;4.50;;;;;;;21.53;38.43;101734.38;694668;28;92724;-64
2021/06/04 00:03:48;;;;;;;4.45;4.05;;;;;;;21.51;38.27;101733.78;696864;28;23494;-63
2021/06/04 00:04:10;;;;;;;4.70;4.30;;;;;;;21.50;38.50;101729.34;695599;28;46320;-63
2021/06/04 00:04:31;;;;;;;4.90;4.50;;;;;;;21.52;38.43;101740.97;695864;28;23759;-63
2021/06/04 00:04:53;;;;;;;4.60;4.20;;;;;;;21.51;38.43;101735.69;696564;28;22417;-63
2021/06/04 00:05:15;;;;;;;4.78;4.25;;;;;;;21.51;38.47;101736.53;695925;28;44153;-63
2021/06/04 00:05:39;;;;;;;5.20;4.55;;;;;;;21.52;38.42;101740.13;696297;28;45312;-63
2021/06/04 00:06:00;;;;;;;4.95;4.53;;;;;;;21.52;38.50;101740.13;694233;28;92062;-63
2021/06/04 00:06:23;;;;;;;4.78;4.40;;;;;;;21.52;38.61;101740.13;696172;28;44405;-63
2021/06/04 00:06:45;;;;;;;4.68;4.30;;;;;;;21.50;38.48;101740.34;696095;28;44369;-63
2021/06/04 00:07:06;;;;;;;6.18;4.50;;;;;;;21.49;38.36;101741.44;695943;28;40318;-63
2021/06/04 00:07:27;;;;;;;5.47;4.78;;;;;;;21.49;38.40;101733.19;696918;28;18509;-63
2021/06/04 00:07:55;;;;;;;4.90;4.43;;;;;;;21.49;38.30;101732.31;695107;28;61760;-63
2021/06/04 00:08:19;;;;;;;5.93;4.50;;;;;;;21.49;38.38;101735.94;697744;28;883;-63
2021/06/04 00:08:40;;;;;;;5.00;4.57;;;;;;;21.49;38.29;101740.56;695673;28;45314;-63
2021/06/04 00:09:04;;;;;;;5.15;4.40;;;;;;;21.50;38.55;101736.75;693050;28;45370;-63
2021/06/04 00:09:25;;;;;;;4.40;4.00;;;;;;;21.46;38.70;101733.59;691415;28;69446;-63
2021/06/04 00:09:46;;;;;;;4.38;4.07;;;;;;;21.46;38.46;101733.59;693673;28;22394;-63
2021/06/04 00:10:11;;;;;;;4.55;4.25;;;;;;;21.46;38.41;101733.59;693292;28;37046;-63
2021/06/04 00:10:37;;;;;;;4.30;4.00;;;;;;;21.44;38.66;101732.97;691175;28;116134;-63
2021/06/04 00:11:01;;;;;;;4.53;4.20;;;;;;;21.43;38.66;101731.31;688382;28;136438;-63
2021/06/04 00:11:26;;;;;;;4.60;4.20;;;;;;;21.44;38.96;101735.72;692081;28;69465;-63
2021/06/04 00:11:49;;;;;;;4.75;4.20;;;;;;;21.42;38.49;101730.44;687345;28;115129;-63
2021/06/04 00:12:11;;;;;;;5.00;4.55;;;;;;;21.42;38.68;101730.44;685985;28;90780;-63
2021/06/04 00:12:32;;;;;;;4.93;4.53;;;;;;;21.42;38.58;101740.59;688391;28;23535;-63
2021/06/04 00:12:53;;;;;;;4.47;4.18;;;;;;;21.41;38.77;101728.78;689552;28;23514;-63
2021/06/04 00:13:19;;;;;;;4.78;4.47;;;;;;;21.41;38.83;101734.28;691577;28;17231;-63
2021/06/04 00:13:42;;;;;;;5.25;4.75;;;;;;;21.42;38.52;101729.59;688701;28;137977;-63
2021/06/04 00:14:06;;;;;;;4.90;4.50;;;;;;;21.40;38.76;101727.09;693632;28;69318;-63
2021/06/04 00:14:33;;;;;;;5.07;4.50;;;;;;;21.40;38.33;101720.75;693673;28;110091;-63
2021/06/04 00:14:55;;;;;;;5.00;4.50;;;;;;;21.39;38.95;101721.81;692328;28;137082;-63
2021/06/04 00:15:18;;;;;;;4.82;4.35;;;;;;;21.41;38.74;101727.91;696955;28;22293;-63
2021/06/04 00:15:39;;;;;;;5.03;4.50;;;;;;;21.41;38.66;101725.16;692136;28;69463;-63
2021/06/04 00:16:04;;;;;;;4.90;4.47;;;;;;;21.41;38.72;101719.66;694022;28;10373;-63
2021/06/04 00:16:29;;;;;;;5.20;4.70;;;;;;;21.41;38.66;101725.16;690755;28;115020;-63
2021/06/04 00:16:52;;;;;;;4.60;4.30;;;;;;;21.39;38.59;101721.81;690767;28;116650;-63
2021/06/04 00:17:15;;;;;;;4.88;4.50;;;;;;;21.39;38.67;101725.44;692913;28;65121;-63
2021/06/04 00:17:37;;;;;;;4.60;4.20;;;;;;;21.37;38.78;101726.72;694958;28;69592;-63
2021/06/04 00:17:58;;;;;;;4.70;4.30;;;;;;;21.38;38.76;101720.16;695720;28;44161;-63
2021/06/04 00:18:19;;;;;;;4.90;4.50;;;;;;;21.36;38.72;101720.38;696025;28;22419;-63
2021/06/04 00:18:42;;;;;;;5.10;4.60;;;;;;;21.36;38.76;101719.53;693683;28;12296;-63
2021/06/04 00:19:09;;;;;;;4.97;4.57;;;;;;;21.36;38.75;101714.03;692897;28;52806;-63
2021/06/04 00:19:32;;;;;;;4.80;4.40;;;;;;;21.36;38.70;101719.53;690118;28;112699;-63
2021/06/04 00:19:53;;;;;;;4.90;4.50;;;;;;;21.35;38.72;101721.44;691825;28;77750;-63
2021/06/04 00:20:17;;;;;;;5.38;4.43;;;;;;;21.35;38.84;101728.84;693935;28;22464;-63
2021/06/04 00:20:38;;;;;;;5.10;4.60;;;;;;;21.34;38.80;101721.66;693897;28;67490;-63
2021/06/04 00:21:01;;;;;;;4.75;4.30;;;;;;;21.33;38.97;101718.09;696596;28;23416;-63
2021/06/04 00:21:26;;;;;;;4.65;4.35;;;;;;;21.32;38.95;101716.38;694972;28;69433;-63
2021/06/04 00:21:48;;;;;;;4.82;4.40;;;;;;;21.31;38.85;101717.44;690635;28;98376;-63
2021/06/04 00:22:12;;;;;;;5.00;4.47;;;;;;;21.33;38.78;101715.34;692400;28;69401;-63
2021/06/04 00:22:33;;;;;;;5.60;4.70;;;;;;;21.33;38.67;101717.22;691305;28;68124;-63
2021/06/04 00:22:54;;;;;;;5.25;4.78;;;;;;;21.32;38.81;101716.38;693319;28;10469;-63
2021/06/04 00:23:15;;;;;;;4.50;4.20;;;;;;;21.31;38.85;101714.69;694321;28;14514;-63
2021/06/04 00:23:38;;;;;;;4.90;4.50;;;;;;;21.32;39.01;101718.31;694389;28;44377;-63
2021/06/04 00:24:00;;;;;;;5.30;4.38;;;;;;;21.31;38.68;101716.63;695740;28;46306;-63
2021/06/04 00:24:22;;;;;;;5.10;4.60;;;;;;;21.31;38.68;101711.94;695850;28;46334;-63
2021/06/04 00:24:45;;;;;;;5.18;4.68;;;;;;;21.30;38.83;101715.78;692574;28;47021;-63
2021/06/04 00:25:07;;;;;;;5.22;4.70;;;;;;;21.31;38.68;101717.44;692231;28;69463;-63
2021/06/04 00:25:29;;;;;;;4.70;4.30;;;;;;;21.32;39.06;101715.56;692037;28;69592;-63
2021/06/04 00:25:50;;;;;;;4.47;4.07;;;;;;;21.32;38.92;101712.81;693557;28;1053;-63
2021/06/04 00:26:16;;;;;;;4.90;4.45;;;;;;;21.30;38.96;101721.28;692926;28;37719;-63
2021/06/04 00:26:40;;;;;;;5.63;4.88;;;;;;;21.29;38.89;101719.59;694278;28;46394;-63
2021/06/04 00:27:02;;;;;;;5.20;4.80;;;;;;;21.29;38.83;101719.59;694308;28;82224;-63
2021/06/04 00:27:25;;;;;;;4.80;4.40;;;;;;;21.29;38.80;101719.59;694125;28;28400;-64
2021/06/04 00:27:46;;;;;;;4.90;4.28;;;;;;;21.29;38.93;101716.84;692921;28;45324;-64
2021/06/04 00:28:08;;;;;;;4.70;4.30;;;;;;;21.28;38.86;101717.06;693413;28;45352;-63
2021/06/04 00:28:29;;;;;;;4.53;4.15;;;;;;;21.28;39.07;101715.16;693174;28;46405;-63
2021/06/04 00:28:50;;;;;;;5.03;4.63;;;;;;;21.27;38.76;101715.38;691274;28;23430;-63
2021/06/04 00:29:12;;;;;;;5.07;4.68;;;;;;;21.24;38.91;101714.75;691912;28;18354;-63
2021/06/04 00:29:35;;;;;;;5.15;4.20;;;;;;;21.26;38.94;101708.22;692848;28;23155;-63
2021/06/04 00:29:56;;;;;;;4.63;4.22;;;;;;;21.26;39.04;101719.19;691200;28;88292;-63
2021/06/04 00:30:18;;;;;;;5.38;4.45;;;;;;;21.25;38.66;101721.09;694559;28;9807;-63
2021/06/04 00:30:39;;;;;;;4.50;4.18;;;;;;;21.24;38.79;101712.00;694859;28;12009;-64
2021/06/04 00:31:00;;;;;;;4.75;4.35;;;;;;;21.25;38.71;101712.84;695032;28;38038;-63
2021/06/04 00:31:22;;;;;;;5.00;4.60;;;;;;;21.23;39.01;101715.81;696241;28;45110;-63
2021/06/04 00:31:45;;;;;;;4.80;4.40;;;;;;;21.24;39.00;101716.69;697198;28;13632;-63
2021/06/04 00:32:08;;;;;;;4.93;4.43;;;;;;;21.24;38.89;101719.44;693959;28;91232;-63
2021/06/04 00:32:29;;;;;;;5.37;4.60;;;;;;;21.23;38.81;101713.06;689303;28;67946;-63
2021/06/04 00:32:51;;;;;;;5.03;4.40;;;;;;;21.23;38.93;101709.50;689403;28;45242;-63
2021/06/04 00:33:12;;;;;;;4.70;4.30;;;;;;;21.26;38.84;101719.19;691303;28;23557;-63
2021/06/04 00:33:33;;;;;;;4.68;4.28;;;;;;;21.26;38.99;101710.97;691404;28;23423;-63
2021/06/04 00:33:55;;;;;;;4.47;4.07;;;;;;;21.27;38.73;101713.47;691965;28;978;-64
2021/06/04 00:34:17;;;;;;;5.22;4.82;;;;;;;21.28;38.63;101717.91;692788;28;5246;-64
2021/06/04 00:34:39;;;;;;;5.13;4.63;;;;;;;21.27;38.75;101713.47;692939;28;43809;-63
2021/06/04 00:35:00;;;;;;;4.75;4.32;;;;;;;21.27;38.77;101715.38;693111;28;43422;-63
2021/06/04 00:35:22;;;;;;;4.93;4.43;;;;;;;21.26;39.16;101714.53;692610;28;23516;-63
2021/06/04 00:35:44;;;;;;;4.68;4.28;;;;;;;21.29;38.84;101716.00;689770;28;30163;-63
2021/06/04 00:36:07;;;;;;;4.72;4.22;;;;;;;21.29;38.99;101710.50;689644;28;47449;-63
2021/06/04 00:36:28;;;;;;;5.05;4.55;;;;;;;21.28;38.75;101709.66;690603;28;60368;-63
2021/06/04 00:36:50;;;;;;;5.22;4.72;;;;;;;21.28;38.66;101717.06;693605;28;23392;-63
2021/06/04 00:37:12;;;;;;;5.00;4.60;;;;;;;21.26;38.84;101710.97;692584;28;46385;-64
2021/06/04 00:37:34;;;;;;;4.70;4.40;;;;;;;21.27;38.78;101715.38;693679;28;43019;-64
2021/06/04 00:37:55;;;;;;;4.70;4.40;;;;;;;21.28;38.85;101722.56;696793;28;14261;-63
2021/06/04 00:38:16;;;;;;;4.30;4.00;;;;;;;21.28;38.73;101715.16;696854;28;22434;-63
2021/06/04 00:38:38;;;;;;;4.72;4.30;;;;;;;21.28;38.82;101715.16;696614;28;1002;-63
2021/06/04 00:39:00;;;;;;;4.65;4.25;;;;;;;21.28;38.76;101723.38;692185;28;46373;-63
2021/06/04 00:39:24;;;;;;;4.93;4.35;;;;;;;21.27;38.87;101710.75;692141;28;47592;-63
2021/06/04 00:39:46;;;;;;;5.40;4.90;;;;;;;21.26;38.94;101720.03;691493;28;92287;-63
2021/06/04 00:40:11;;;;;;;4.97;4.57;;;;;;;21.24;38.95;101714.75;690746;28;45232;-63
2021/06/04 00:40:36;;;;;;;4.70;4.35;;;;;;;21.23;38.84;101710.31;685557;28;99940;-63
2021/06/04 00:41:02;;;;;;;4.97;4.57;;;;;;;21.23;38.97;101717.72;686967;28;61678;-63
2021/06/04 00:41:25;;;;;;;4.45;4.15;;;;;;;21.22;39.15;101714.16;685361;28;92129;-63
2021/06/04 00:41:51;;;;;;;4.60;4.20;;;;;;;21.21;39.08;101717.13;688190;28;38666;-63
2021/06/04 00:42:16;;;;;;;4.93;4.47;;;;;;;21.22;39.02;101718.78;689582;28;67602;-63
2021/06/04 00:42:39;;;;;;;4.90;4.50;;;;;;;21.22;39.27;101713.28;692658;28;61514;-63
2021/06/04 00:43:00;;;;;;;5.45;4.60;;;;;;;21.22;39.58;101711.41;695392;28;23854;-63
2021/06/04 00:43:24;;;;;;;4.80;4.40;;;;;;;21.24;39.14;101716.69;692758;28;61784;-63
2021/06/04 00:43:46;;;;;;;5.07;4.57;;;;;;;21.23;38.85;101704.81;688919;28;65943;-63
2021/06/04 00:44:08;;;;;;;5.10;4.50;;;;;;;21.26;38.76;101706.28;689973;28;45363;-63
2021/06/04 00:44:29;;;;;;;6.68;4.50;;;;;;;21.26;38.84;101709.03;691103;28;12345;-63
2021/06/04 00:44:55;;;;;;;4.78;4.38;;;;;;;21.24;38.85;101712.00;688025;28;43984;-63
2021/06/04 00:45:22;;;;;;;5.97;4.60;;;;;;;21.26;38.73;101708.22;685729;28;138175;-63
2021/06/04 00:45:47;;;;;;;4.80;4.32;;;;;;;21.26;38.76;101710.97;686835;28;138395;-63
2021/06/04 00:46:08;;;;;;;4.45;4.15;;;;;;;21.28;38.86;101711.56;687225;28;93256;-63
2021/06/04 00:46:30;;;;;;;4.85;4.55;;;;;;;21.26;38.94;101706.28;687272;28;33108;-63
2021/06/04 00:46:53;;;;;;;4.97;4.65;;;;;;;21.26;38.65;101711.78;689704;28;37300;-63
2021/06/04 00:47:15;;;;;;;5.00;4.60;;;;;;;21.26;38.94;101708.22;690473;28;45249;-63
2021/06/04 00:47:37;;;;;;;4.72;4.32;;;;;;;21.26;38.91;101702.72;688576;28;46009;-63
2021/06/04 00:47:59;;;;;;;4.30;4.00;;;;;;;21.27;39.03;101710.75;689801;28;47589;-63
2021/06/04 00:48:21;;;;;;;4.60;4.30;;;;;;;21.26;38.93;101710.97;687358;28;18318;-63
2021/06/04 00:48:44;;;;;;;5.60;4.60;;;;;;;21.24;38.85;101712.00;685165;28;91067;-63
2021/06/04 00:49:10;;;;;;;5.53;4.40;;;;;;;21.23;38.80;101709.50;682377;28;115130;-63
2021/06/04 00:49:33;;;;;;;5.72;4.68;;;;;;;21.23;38.87;101715.00;682586;28;93158;-63
2021/06/04 00:49:56;;;;;;;4.85;4.55;;;;;;;21.21;38.70;101715.22;683738;28;69447;-63
2021/06/04 00:50:26;;;;;;;4.60;4.30;;;;;;;21.19;39.03;101717.34;682807;28;22446;-63
2021/06/04 00:50:50;;;;;;;4.75;4.30;;;;;;;21.21;39.05;101706.13;679637;28;137562;-63
2021/06/04 00:51:15;;;;;;;5.07;4.68;;;;;;;21.22;38.86;101710.53;684796;28;81949;-63
2021/06/04 00:51:40;;;;;;;5.22;4.82;;;;;;;21.20;39.02;101708.03;686198;28;113487;-63
2021/06/04 00:52:08;;;;;;;5.35;4.40;;;;;;;21.20;39.04;101705.28;686120;28;136413;-63
2021/06/04 00:52:34;;;;;;;4.88;4.47;;;;;;;21.20;38.88;101713.53;685334;28;138173;-63
2021/06/04 00:52:57;;;;;;;4.38;4.07;;;;;;;21.20;39.05;101715.44;684584;28;138087;-63
2021/06/04 00:53:20;;;;;;;4.70;4.30;;;;;;;21.20;39.31;101712.69;690501;28;45355;-64
2021/06/04 00:53:43;;;;;;;4.65;4.25;;;;;;;21.19;39.21;101714.59;686756;28;93342;-63
2021/06/04 00:54:06;;;;;;;4.78;4.38;;;;;;;21.21;38.74;101706.13;687170;28;45630;-64
2021/06/04 00:54:28;;;;;;;4.60;4.30;;;;;;;21.21;38.78;101714.38;685665;28;69732;-63
2021/06/04 00:54:54;;;;;;;4.90;4.50;;;;;;;21.20;39.00;101713.53;685212;28;103079;-63
2021/06/04 00:55:19;;;;;;;4.72;4.32;;;;;;;21.22;38.81;101718.78;686148;28;93207;-63
2021/06/04 00:55:41;;;;;;;4.80;4.40;;;;;;;21.23;38.73;101712.25;685644;28;78553;-63
2021/06/04 00:56:03;;;;;;;4.65;4.30;;;;;;;21.23;38.92;101710.31;688936;28;44379;-63
2021/06/04 00:56:28;;;;;;;4.55;4.25;;;;;;;21.24;38.86;101706.53;690137;28;110935;-63
2021/06/04 00:56:51;;;;;;;5.15;4.70;;;;;;;21.23;38.83;101712.25;688656;28;1653;-63
2021/06/04 00:57:13;;;;;;;5.25;4.80;;;;;;;21.22;38.76;101703.16;684991;28;44655;-63
2021/06/04 00:57:35;;;;;;;4.85;4.47;;;;;;;21.23;38.60;101715.00;683478;28;46587;-63
2021/06/04 00:57:57;;;;;;;4.40;4.10;;;;;;;21.21;38.96;101712.47;685145;28;22127;-63
2021/06/04 00:58:21;;;;;;;4.80;4.40;;;;;;;21.21;38.78;101711.63;682578;28;46325;-63
2021/06/04 00:58:45;;;;;;;4.82;4.43;;;;;;;21.19;38.99;101714.59;682472;28;92326;-63
2021/06/04 00:59:09;;;;;;;5.28;4.40;;;;;;;21.18;38.85;101712.06;685242;28;93054;-63
2021/06/04 00:59:37;;;;;;;4.95;4.30;;;;;;;21.17;38.92;101721.38;682988;28;138211;-63
2021/06/04 01:00:04;;;;;;;5.00;4.60;;;;;;;21.16;39.13;101708.69;687069;28;135672;-63
2021/06/04 01:00:33;;;;;;;4.55;4.18;;;;;;;21.17;39.02;101707.63;686723;28;137976;-63
2021/06/04 01:00:56;;;;;;;5.22;4.38;;;;;;;21.17;39.15;101715.88;687499;28;115994;-63
2021/06/04 01:01:19;;;;;;;4.90;4.50;;;;;;;21.16;38.99;101712.31;689689;28;52871;-63
2021/06/04 01:01:42;;;;;;;4.90;4.45;;;;;;;21.15;39.08;101713.34;691159;28;61788;-63
2021/06/04 01:02:05;;;;;;;5.07;4.57;;;;;;;21.14;39.25;101708.91;690320;28;37885;-63
2021/06/04 01:02:27;;;;;;;4.75;4.35;;;;;;;21.14;39.03;101706.16;687958;28;67481;-63
2021/06/04 01:02:49;;;;;;;4.80;4.40;;;;;;;21.14;39.25;101716.31;689575;28;45357;-63
2021/06/04 01:03:11;;;;;;;4.85;4.45;;;;;;;21.13;39.00;101710.00;688663;28;46547;-63
2021/06/04 01:03:36;;;;;;;5.15;4.72;;;;;;;21.14;39.08;101714.41;689482;28;65619;-63
2021/06/04 01:04:00;;;;;;;4.63;4.22;;;;;;;21.13;39.25;101709.16;689235;28;115200;-63
2021/06/04 01:04:25;;;;;;;4.80;4.40;;;;;;;21.12;39.10;101710.22;691087;28;92240;-63
2021/06/04 01:04:48;;;;;;;5.10;4.65;;;;;;;21.13;39.10;101711.88;683841;28;137854;-63
2021/06/04 01:05:10;;;;;;;6.50;4.53;;;;;;;21.12;39.27;101715.72;685388;28;22424;-63
2021/06/04 01:05:33;;;;;;;4.63;4.32;;;;;;;21.11;39.04;101717.59;684519;28;69164;-63
2021/06/04 01:06:04;;;;;;;4.80;4.40;;;;;;;21.11;39.30;101712.13;686569;28;38941;-63
2021/06/04 01:06:31;;;;;;;4.40;4.05;;;;;;;21.09;39.33;101710.69;682177;28;133657;-63
2021/06/04 01:06:58;;;;;;;4.93;4.43;;;;;;;21.06;39.24;101710.06;685279;28;127528;-63
2021/06/04 01:07:23;;;;;;;4.85;4.50;;;;;;;21.06;39.24;101707.31;685059;28;138639;-63
2021/06/04 01:07:57;;;;;;;4.55;4.15;;;;;;;21.08;39.36;101715.31;686296;28;115228;-63
2021/06/04 01:08:33;;;;;;;4.88;4.57;;;;;;;21.07;39.61;101710.91;686204;28;137477;-63
2021/06/04 01:09:06;;;;;;;4.75;4.45;;;;;;;21.07;39.53;101716.38;684503;28;124667;-63
2021/06/04 01:09:34;;;;;;;5.10;4.60;;;;;;;21.07;39.28;101713.66;686568;28;135655;-63
2021/06/04 01:10:07;;;;;;;5.27;4.77;;;;;;;21.05;39.16;101708.38;685734;28;120632;-63
2021/06/04 01:10:40;;;;;;;5.15;4.70;;;;;;;21.04;39.35;101712.19;686442;28;136100;-63
2021/06/04 01:11:07;;;;;;;5.03;4.68;;;;;;;21.03;39.30;101718.75;685782;28;138644;-63
2021/06/04 01:11:36;;;;;;;4.60;4.30;;;;;;;21.01;39.00;101712.63;686044;28;139019;-63
2021/06/04 01:12:20;;;;;;;5.25;4.50;;;;;;;21.00;39.38;101710.97;689426;28;61438;-63
2021/06/04 01:12:54;;;;;;;5.10;4.70;;;;;;;20.98;39.43;101717.72;683749;28;137561;-63
2021/06/04 01:13:22;;;;;;;5.03;4.60;;;;;;;20.98;39.43;101710.31;683176;28;152453;-63
2021/06/04 01:13:55;;;;;;;5.28;4.40;;;;;;;20.98;39.48;101713.06;685973;28;109768;-64
2021/06/04 01:14:23;;;;;;;4.80;4.50;;;;;;;21.00;38.76;101712.84;686546;28;135975;-63
2021/06/04 01:14:52;;;;;;;4.90;4.55;;;;;;;20.98;39.27;101714.97;686306;28;136602;-63
2021/06/04 01:15:20;;;;;;;5.00;4.60;;;;;;;20.97;39.25;101711.41;688663;28;138454;-63
2021/06/04 01:15:52;;;;;;;5.05;4.35;;;;;;;20.94;39.32;101713.72;688964;28;137898;-63
2021/06/04 01:16:20;;;;;;;5.03;4.53;;;;;;;20.94;39.54;101713.72;688948;28;130615;-63
2021/06/04 01:16:51;;;;;;;5.32;4.45;;;;;;;20.91;39.33;101719.66;689156;28;138805;-63
2021/06/04 01:17:20;;;;;;;5.15;4.38;;;;;;;20.92;39.51;101713.94;686703;28;133335;-64
2021/06/04 01:17:45;;;;;;;4.88;4.50;;;;;;;20.92;39.72;101708.47;687059;28;138006;-63
2021/06/04 01:18:09;;;;;;;6.20;4.43;;;;;;;20.92;39.55;101710.38;683818;28;136339;-64
2021/06/04 01:18:42;;;;;;;6.75;4.90;;;;;;;20.91;39.34;101727.91;683665;28;114417;-63
2021/06/04 01:19:29;;;;;;;4.95;4.45;;;;;;;20.90;39.58;101718.00;683673;28;121042;-63
2021/06/04 01:19:55;;;;;;;4.90;4.60;;;;;;;20.90;39.45;101726.25;684299;28;135742;-63
2021/06/04 01:20:19;;;;;;;5.78;4.70;;;;;;;20.88;39.75;101724.56;685728;28;110201;-63
2021/06/04 01:20:44;;;;;;;6.97;4.72;;;;;;;20.88;39.68;101724.56;689142;28;69511;-63
2021/06/04 01:21:08;;;;;;;5.20;4.75;;;;;;;20.89;40.00;101719.88;687445;28;101545;-63
2021/06/04 01:21:35;;;;;;;4.70;4.30;;;;;;;20.91;39.78;101722.41;690380;28;37778;-63
2021/06/04 01:22:00;;;;;;;5.05;4.65;;;;;;;20.90;39.76;101720.75;689538;28;61679;-63
2021/06/04 01:22:30;;;;;;;4.70;4.40;;;;;;;20.90;39.83;101721.59;693191;28;33619;-63
2021/06/04 01:23:04;;;;;;;4.65;4.35;;;;;;;20.89;39.66;101730.88;691171;28;159110;-63
2021/06/04 01:23:41;;;;;;;5.00;4.60;;;;;;;20.89;39.85;101722.63;691238;28;145997;-63
2021/06/04 01:24:10;;;;;;;4.78;4.40;;;;;;;20.89;39.68;101722.63;692732;28;137861;-63
2021/06/04 01:24:44;;;;;;;4.70;4.40;;;;;;;20.89;39.78;101725.38;689222;28;137741;-63
2021/06/04 01:25:21;;;;;;;4.55;4.25;;;;;;;20.90;39.77;101729.00;688574;28;161925;-64
2021/06/04 01:25:48;;;;;;;5.03;4.63;;;;;;;20.90;39.76;101726.25;689873;28;135993;-63
2021/06/04 01:26:14;;;;;;;5.22;4.82;;;;;;;20.88;39.83;101724.56;686341;28;133018;-63
2021/06/04 01:26:37;;;;;;;5.07;4.72;;;;;;;20.86;39.69;101721.19;688191;28;105890;-63
2021/06/04 01:27:04;;;;;;;5.63;4.85;;;;;;;20.88;39.69;101724.56;688688;28;87406;-63
2021/06/04 01:27:30;;;;;;;5.13;4.72;;;;;;;20.90;39.81;101726.25;683303;28;160974;-63
2021/06/04 01:27:53;;;;;;;4.93;4.53;;;;;;;20.89;39.71;101725.38;681539;28;138301;-63
2021/06/04 01:28:22;;;;;;;5.05;4.68;;;;;;;20.88;39.70;101727.28;681322;28;137219;-63
2021/06/04 01:28:47;;;;;;;4.65;4.25;;;;;;;20.88;39.87;101721.81;684952;28;127452;-63
2021/06/04 01:29:13;;;;;;;4.53;4.22;;;;;;;20.88;39.66;101723.72;686314;28;114896;-64
2021/06/04 01:29:37;;;;;;;5.05;4.57;;;;;;;20.88;39.82;101721.81;686877;28;114977;-63
2021/06/04 01:30:14;;;;;;;5.60;4.60;;;;;;;20.88;39.71;101726.47;690142;28;115234;-63
2021/06/04 01:30:42;;;;;;;5.32;4.82;;;;;;;20.86;39.94;101729.44;686112;28;161578;-63
2021/06/04 01:31:06;;;;;;;7.50;4.35;;;;;;;20.87;39.92;101728.34;686178;28;136389;-64
2021/06/04 01:31:34;;;;;;;5.82;4.60;;;;;;;20.88;39.71;101729.22;686556;28;138013;-63
2021/06/04 01:32:00;;;;;;;5.18;4.70;;;;;;;20.85;39.84;101727.75;685071;28;137752;-63
2021/06/04 01:32:26;;;;;;;4.95;4.55;;;;;;;20.85;39.79;101730.47;683433;28;115202;-63
2021/06/04 01:32:48;;;;;;;5.00;4.60;;;;;;;20.84;39.89;101723.31;688682;28;89377;-63
2021/06/04 01:33:13;;;;;;;6.13;4.75;;;;;;;20.83;39.90;101721.63;683200;28;69443;-63
2021/06/04 01:33:39;;;;;;;4.95;4.55;;;;;;;20.84;39.87;101728.78;682239;28;126455;-63
2021/06/04 01:34:05;;;;;;;5.10;4.70;;;;;;;20.85;39.85;101725.00;685523;28;115766;-63
2021/06/04 01:34:30;;;;;;;5.40;4.35;;;;;;;20.86;39.81;101731.31;685120;28;133659;-63
2021/06/04 01:35:03;;;;;;;4.50;4.20;;;;;;;20.85;40.03;101735.97;684799;28;137538;-63
2021/06/04 01:35:28;;;;;;;5.00;4.60;;;;;;;20.84;39.68;101728.78;683974;28;126137;-63
2021/06/04 01:35:52;;;;;;;4.72;4.43;;;;;;;20.83;39.70;101727.13;688366;28;73176;-63
2021/06/04 01:36:16;;;;;;;4.90;4.50;;;;;;;20.84;39.75;101722.47;687295;28;79924;-63
2021/06/04 01:36:41;;;;;;;5.10;4.60;;;;;;;20.85;39.89;101730.47;683900;28;110707;-63
2021/06/04 01:37:07;;;;;;;4.65;4.32;;;;;;;20.84;39.99;101730.72;682978;28;61143;-63
2021/06/04 01:37:40;;;;;;;4.85;4.45;;;;;;;20.83;39.69;101731.75;679477;28;138572;-63
2021/06/04 01:38:04;;;;;;;4.70;4.30;;;;;;;20.82;39.98;101725.44;679560;28;91108;-63
2021/06/04 01:38:32;;;;;;;4.63;4.32;;;;;;;20.83;39.58;101731.75;678491;28;115388;-63
2021/06/04 01:38:56;;;;;;;5.00;4.50;;;;;;;20.82;39.65;101727.34;680165;28;117761;-63
2021/06/04 01:39:21;;;;;;;4.95;4.53;;;;;;;20.81;39.59;101729.22;682573;28;93042;-63
2021/06/04 01:39:48;;;;;;;4.70;4.30;;;;;;;20.79;39.83;101728.63;679454;28;137316;-63
2021/06/04 01:40:13;;;;;;;4.93;4.22;;;;;;;20.78;39.82;101732.41;679957;28;92278;-63
2021/06/04 01:40:40;;;;;;;4.68;4.30;;;;;;;20.78;39.82;101729.66;679363;28;138990;-63
2021/06/04 01:41:06;;;;;;;4.80;4.40;;;;;;;20.78;39.85;101732.41;680945;28;133226;-63
2021/06/04 01:41:29;;;;;;;5.03;4.63;;;;;;;20.79;39.96;101727.78;683317;28;93375;-63
2021/06/04 01:41:52;;;;;;;5.07;4.68;;;;;;;20.79;40.11;101733.28;684406;28;69432;-63
2021/06/04 01:42:21;;;;;;;5.43;4.55;;;;;;;20.78;40.10;101726.09;682630;28;107987;-63
2021/06/04 01:42:46;;;;;;;5.20;4.55;;;;;;;20.78;39.88;101732.41;685881;28;59384;-63
2021/06/04 01:43:13;;;;;;;4.60;4.20;;;;;;;20.78;40.00;101731.59;682059;28;124720;-63
2021/06/04 01:43:39;;;;;;;5.15;4.65;;;;;;;20.78;40.08;101735.16;676971;28;141543;-63
2021/06/04 01:44:07;;;;;;;4.60;4.28;;;;;;;20.76;40.01;101730.97;683003;28;61178;-63
2021/06/04 01:44:33;;;;;;;4.80;4.40;;;;;;;20.75;40.38;101729.28;678554;28;138011;-63
2021/06/04 01:44:57;;;;;;;4.90;4.53;;;;;;;20.75;40.05;101729.28;680083;28;105971;-64
2021/06/04 01:45:22;;;;;;;4.40;4.00;;;;;;;20.75;40.10;101732.84;684288;28;70529;-63
2021/06/04 01:45:50;;;;;;;4.97;4.55;;;;;;;20.76;40.16;101730.97;684139;28;138601;-63
2021/06/04 01:46:16;;;;;;;5.07;4.45;;;;;;;20.74;39.90;101733.13;681670;28;123396;-63
2021/06/04 01:46:42;;;;;;;5.38;4.88;;;;;;;20.73;40.10;101726.75;682240;28;130734;-63
2021/06/04 01:47:06;;;;;;;4.57;4.22;;;;;;;20.72;40.28;101729.72;685669;28;89848;-63
2021/06/04 01:47:29;;;;;;;4.85;4.40;;;;;;;20.72;40.18;101733.34;686610;28;80555;-63
2021/06/04 01:47:56;;;;;;;5.78;4.80;;;;;;;20.75;40.34;101727.38;685152;28;107017;-63
2021/06/04 01:48:23;;;;;;;4.45;4.05;;;;;;;20.75;40.39;101730.13;685468;28;93048;-63
2021/06/04 01:48:58;;;;;;;4.80;4.40;;;;;;;20.77;40.43;101728.00;681740;28;137665;-64
2021/06/04 01:49:23;;;;;;;5.07;4.68;;;;;;;20.78;40.18;101734.34;679122;28;115117;-63
2021/06/04 01:49:48;;;;;;;4.95;4.57;;;;;;;20.77;40.19;101735.38;682241;28;115220;-63
2021/06/04 01:50:14;;;;;;;5.05;4.65;;;;;;;20.77;40.22;101729.91;686645;28;92321;-63
2021/06/04 01:50:39;;;;;;;4.75;4.45;;;;;;;20.78;40.24;101731.59;684630;28;121040;-63
2021/06/04 01:51:07;;;;;;;4.70;4.40;;;;;;;20.78;40.27;101734.34;680915;28;138829;-63
2021/06/04 01:51:37;;;;;;;5.40;4.90;;;;;;;20.78;40.20;101732.41;680823;28;160813;-63
2021/06/04 01:52:07;;;;;;;4.90;4.45;;;;;;;20.78;39.94;101726.94;681871;28;138633;-63
2021/06/04 01:52:34;;;;;;;4.77;4.47;;;;;;;20.80;40.05;101724.81;685299;28;109166;-63
2021/06/04 01:53:03;;;;;;;5.20;4.80;;;;;;;20.82;39.70;101730.09;685063;28;137888;-63
2021/06/04 01:53:27;;;;;;;5.50;5.00;;;;;;;20.81;39.93;101734.72;683193;28;136349;-63
2021/06/04 01:53:54;;;;;;;5.68;4.82;;;;;;;20.81;40.02;101734.72;680050;28;151162;-63
2021/06/04 01:54:22;;;;;;;4.80;4.40;;;;;;;20.81;39.96;101731.97;679234;28;121053;-63
2021/06/04 01:54:48;;;;;;;4.85;4.45;;;;;;;20.80;39.94;101738.56;678656;28;136823;-63
2021/06/04 01:55:14;;;;;;;4.82;4.40;;;;;;;20.81;40.06;101733.88;680016;28;115131;-63
2021/06/04 01:55:41;;;;;;;4.65;4.35;;;;;;;20.82;39.96;101735.59;681660;28;139027;-63
2021/06/04 01:56:08;;;;;;;4.68;4.35;;;;;;;20.80;40.11;101735.81;685126;28;61077;-63
2021/06/04 01:56:33;;;;;;;5.78;4.70;;;;;;;20.82;40.24;101725.44;689394;28;53368;-63